Time;durP1;ratioP1;P1;durP2;ratioP2;P2;SDS_P1;SDS_P2;PMS_P1;PMS_P2;Temp;Humidity;BMP_temperature;BMP_pressure;BME280_temperature;BME280_humidity;BME280_pressure;Samples;Min_cycle;Max_cycle;Signal;HPM_P1;HPM_P2
2022/09/13 00:01:03;;;;;;;;;;;22.50;62.20;;;;;;5034176;28;19909;-85
2022/09/13 00:03:29;;;;;;;;;;;22.50;62.20;;;;;;5017134;28;19992;-83
2022/09/13 00:05:54;;;;;;;;;;;22.50;62.30;;;;;;5034715;28;20338;-83
2022/09/13 00:08:21;;;;;;;;;;;22.50;62.30;;;;;;5034518;28;19927;-85
2022/09/13 00:10:46;;;;;;;;;;;22.50;62.30;;;;;;5034303;28;20361;-84
2022/09/13 00:13:13;;;;;;;;;;;22.50;62.30;;;;;;5016611;28;19971;-85
2022/09/13 00:15:46;;;;;;;;;;;22.50;62.40;;;;;;5000286;28;19975;-83
2022/09/13 00:18:12;;;;;;;;;;;22.40;62.40;;;;;;5032905;28;19909;-84
2022/09/13 00:20:38;;;;;;;;;;;22.40;62.40;;;;;;5033076;28;20322;-84
2022/09/13 00:23:04;;;;;;;;;;;22.40;62.40;;;;;;5016727;28;19909;-85
2022/09/13 00:25:29;;;;;;;;;;;22.40;62.40;;;;;;5017054;28;19909;-84
2022/09/13 00:27:55;;;;;;;;;;;22.40;62.40;;;;;;5033936;28;20362;-84
2022/09/13 00:30:20;;;;;;;;;;;22.40;62.40;;;;;;5032844;28;19913;-83
2022/09/13 00:32:46;;;;;;;;;;;22.40;62.50;;;;;;5049401;28;20288;-83
2022/09/13 00:35:12;;;;;;;;;;;22.40;62.50;;;;;;5033696;28;19920;-83
2022/09/13 00:37:38;;;;;;;;;;;22.40;62.50;;;;;;5032928;28;19909;-83
2022/09/13 00:40:04;;;;;;;;;;;22.30;62.50;;;;;;5032598;28;19939;-83
2022/09/13 00:42:31;;;;;;;;;;;22.30;62.40;;;;;;5033662;28;19909;-82
2022/09/13 00:44:58;;;;;;;;;;;22.30;62.50;;;;;;5015912;28;19956;-83
2022/09/13 00:47:36;;;;;;;;;;;22.30;62.50;;;;;;5016039;28;20318;-84
2022/09/13 00:50:05;;;;;;;;;;;22.30;62.50;;;;;;5032871;28;19909;-83
2022/09/13 00:52:33;;;;;;;;;;;22.30;62.50;;;;;;5050160;28;19933;-85
2022/09/13 00:55:03;;;;;;;;;;;22.30;62.50;;;;;;5033859;28;19964;-85
2022/09/13 00:57:31;;;;;;;;;;;22.30;62.60;;;;;;5015974;28;19908;-83
2022/09/13 01:00:11;;;;;;;;;;;22.20;62.50;;;;;;5032662;28;19905;-84
2022/09/13 01:02:41;;;;;;;;;;;22.30;62.60;;;;;;5034165;28;19909;-82
2022/09/13 01:05:08;;;;;;;;;;;22.20;62.60;;;;;;5015653;28;19940;-84
2022/09/13 01:07:33;;;;;;;;;;;22.20;62.60;;;;;;5032891;28;19925;-84
2022/09/13 01:10:01;;;;;;;;;;;22.20;62.60;;;;;;5049974;28;19913;-83
2022/09/13 01:12:34;;;;;;;;;;;22.20;62.60;;;;;;5033612;28;19952;-82
2022/09/13 01:15:00;;;;;;;;;;;22.20;62.60;;;;;;5016186;28;19909;-84
2022/09/13 01:17:27;;;;;;;;;;;22.20;62.70;;;;;;5032719;28;19978;-83
2022/09/13 01:19:52;;;;;;;;;;;22.20;62.70;;;;;;5032407;28;19951;-86
2022/09/13 01:22:21;;;;;;;;;;;22.20;62.60;;;;;;5032500;28;19913;-83
2022/09/13 01:25:05;;;;;;;;;;;22.10;62.60;;;;;;5016533;28;19998;-84
2022/09/13 01:27:34;;;;;;;;;;;22.10;62.60;;;;;;5032648;28;19967;-85
2022/09/13 01:30:08;;;;;;;;;;;22.10;62.60;;;;;;5015870;28;20294;-83
2022/09/13 01:32:48;;;;;;;;;;;22.10;62.60;;;;;;5016454;28;20349;-83
2022/09/13 01:35:26;;;;;;;;;;;22.10;62.70;;;;;;5018109;28;19991;-83
2022/09/13 01:37:55;;;;;;;;;;;22.10;62.70;;;;;;5020122;28;20003;-85
2022/09/13 01:40:20;;;;;;;;;;;22.10;62.70;;;;;;5052596;28;19912;-84
2022/09/13 01:42:58;;;;;;;;;;;22.10;62.70;;;;;;5019824;28;20365;-83
2022/09/13 01:45:44;;;;;;;;;;;22.10;62.70;;;;;;5019521;28;19944;-85
2022/09/13 01:48:19;;;;;;;;;;;22.00;62.70;;;;;;5019324;28;19916;-84
2022/09/13 01:50:46;;;;;;;;;;;22.00;62.70;;;;;;5019963;28;19909;-84
2022/09/13 01:53:24;;;;;;;;;;;22.00;62.80;;;;;;5019573;28;19920;-83
2022/09/13 01:55:51;;;;;;;;;;;22.00;62.70;;;;;;5037738;28;20402;-83
2022/09/13 01:58:21;;;;;;;;;;;22.00;62.80;;;;;;5037186;28;19905;-83
2022/09/13 02:00:52;;;;;;;;;;;22.00;62.80;;;;;;5019576;28;19909;-84
2022/09/13 02:03:21;;;;;;;;;;;22.00;62.80;;;;;;5037232;28;19920;-83
2022/09/13 02:05:59;;;;;;;;;;;22.00;62.80;;;;;;5037234;28;20031;-83
2022/09/13 02:08:25;;;;;;;;;;;22.00;62.80;;;;;;5019020;28;19917;-83
2022/09/13 02:10:58;;;;;;;;;;;22.00;62.90;;;;;;5051727;28;19913;-84
2022/09/13 02:13:27;;;;;;;;;;;22.00;62.90;;;;;;5036622;28;19917;-84
2022/09/13 02:15:59;;;;;;;;;;;21.90;62.80;;;;;;5018677;28;20350;-83
2022/09/13 02:18:28;;;;;;;;;;;22.00;62.90;;;;;;5036079;28;19909;-83
2022/09/13 02:20:57;;;;;;;;;;;21.90;62.90;;;;;;5036762;28;19913;-84
2022/09/13 02:23:25;;;;;;;;;;;21.90;62.90;;;;;;5002345;28;19936;-83
2022/09/13 02:25:52;;;;;;;;;;;21.90;62.90;;;;;;5018649;28;19970;-83
2022/09/13 02:28:21;;;;;;;;;;;21.90;62.90;;;;;;5019335;28;20047;-83
2022/09/13 02:30:50;;;;;;;;;;;21.90;62.90;;;;;;5018860;28;19974;-83
2022/09/13 02:33:28;;;;;;;;;;;21.90;62.90;;;;;;5035033;28;19924;-83
2022/09/13 02:35:58;;;;;;;;;;;21.90;62.90;;;;;;5036095;28;20357;-83
2022/09/13 02:38:47;;;;;;;;;;;21.90;62.90;;;;;;5018092;28;19909;-84
2022/09/13 02:41:16;;;;;;;;;;;21.90;62.90;;;;;;5015058;28;19974;-83
2022/09/13 02:43:45;;;;;;;;;;;21.90;63.00;;;;;;5051212;28;19912;-84
2022/09/13 02:46:29;;;;;;;;;;;21.90;63.00;;;;;;5051045;28;20001;-84
2022/09/13 02:48:55;;;;;;;;;;;21.90;63.00;;;;;;5018023;28;19940;-83
2022/09/13 02:51:21;;;;;;;;;;;21.80;63.00;;;;;;5051056;28;19905;-84
2022/09/13 02:53:56;;;;;;;;;;;21.80;63.00;;;;;;5051181;28;19967;-83
2022/09/13 02:56:21;;;;;;;;;;;21.80;63.00;;;;;;5018979;28;19956;-83
2022/09/13 02:58:50;;;;;;;;;;;21.80;63.00;;;;;;5034505;28;19912;-83
2022/09/13 03:01:16;;;;;;;;;;;21.80;63.00;;;;;;5018546;28;19909;-85
2022/09/13 03:03:42;;;;;;;;;;;21.80;63.00;;;;;;5036236;28;19909;-84
2022/09/13 03:06:08;;;;;;;;;;;21.80;63.00;;;;;;5017672;28;20365;-83
2022/09/13 03:08:33;;;;;;;;;;;21.80;63.00;;;;;;5050690;28;19928;-83
2022/09/13 03:11:09;;;;;;;;;;;21.80;63.00;;;;;;5017653;28;19933;-83
2022/09/13 03:13:38;;;;;;;;;;;21.80;63.00;;;;;;5018304;28;19931;-83
2022/09/13 03:16:22;;;;;;;;;;;21.80;63.00;;;;;;5050590;28;19904;-83
2022/09/13 03:19:00;;;;;;;;;;;21.80;63.00;;;;;;5018128;28;19913;-85
2022/09/13 03:21:28;;;;;;;;;;;21.80;63.10;;;;;;5035169;28;19909;-83
2022/09/13 03:23:57;;;;;;;;;;;21.70;63.10;;;;;;5017443;28;19948;-84
2022/09/13 03:26:26;;;;;;;;;;;21.80;63.10;;;;;;5034784;28;19909;-83
2022/09/13 03:29:10;;;;;;;;;;;21.80;63.10;;;;;;5017835;28;19992;-86
2022/09/13 03:31:56;;;;;;;;;;;21.70;63.10;;;;;;5017435;28;19909;-83
2022/09/13 03:34:31;;;;;;;;;;;21.70;63.10;;;;;;5035701;28;19917;-83
2022/09/13 03:37:02;;;;;;;;;;;21.70;63.10;;;;;;5017708;28;19909;-84
2022/09/13 03:39:38;;;;;;;;;;;21.70;63.10;;;;;;5034596;28;19909;-83
2022/09/13 03:42:08;;;;;;;;;;;21.70;63.10;;;;;;5050851;28;19909;-86
2022/09/13 03:44:35;;;;;;;;;;;21.70;63.10;;;;;;5017293;28;19955;-83
2022/09/13 03:47:03;;;;;;;;;;;21.70;63.10;;;;;;5049951;28;19944;-85
2022/09/13 03:49:29;;;;;;;;;;;21.70;63.20;;;;;;5035175;28;19909;-83
2022/09/13 03:51:56;;;;;;;;;;;21.60;63.10;;;;;;5017213;28;19956;-83
2022/09/13 03:54:24;;;;;;;;;;;21.60;63.10;;;;;;5033820;28;19921;-85
2022/09/13 03:57:06;;;;;;;;;;;21.70;63.20;;;;;;5016202;28;19955;-83
2022/09/13 03:59:31;;;;;;;;;;;21.60;63.20;;;;;;5034289;28;19909;-83
2022/09/13 04:01:57;;;;;;;;;;;21.60;63.20;;;;;;5050074;28;20312;-82
2022/09/13 04:04:22;;;;;;;;;;;21.60;63.20;;;;;;5034794;28;19929;-81
2022/09/13 04:06:48;;;;;;;;;;;21.60;63.20;;;;;;5050568;28;19920;-81
2022/09/13 04:09:14;;;;;;;;;;;21.60;63.20;;;;;;5033437;28;20407;-84
2022/09/13 04:11:40;;;;;;;;;;;21.60;63.20;;;;;;5016622;28;20003;-84
2022/09/13 04:14:05;;;;;;;;;;;21.60;63.20;;;;;;5033489;28;19951;-86
2022/09/13 04:16:31;;;;;;;;;;;21.60;63.20;;;;;;5033548;28;20007;-84
2022/09/13 04:18:56;;;;;;;;;;;21.60;63.20;;;;;;5016544;28;20449;-84
2022/09/13 04:21:22;;;;;;;;;;;21.60;63.20;;;;;;5016315;28;19909;-84
2022/09/13 04:23:49;;;;;;;;;;;21.60;63.20;;;;;;5033330;28;20004;-83
2022/09/13 04:26:14;;;;;;;;;;;21.60;63.20;;;;;;5033632;28;20273;-85
2022/09/13 04:28:40;;;;;;;;;;;21.60;63.20;;;;;;5032664;28;19919;-85
2022/09/13 04:31:05;;;;;;;;;;;21.60;63.20;;;;;;5016283;28;19909;-84
2022/09/13 04:33:31;;;;;;;;;;;21.60;63.20;;;;;;5048872;28;19924;-84
2022/09/13 04:35:58;;;;;;;;;;;21.50;63.10;;;;;;5000293;28;19953;-82
2022/09/13 04:38:24;;;;;;;;;;;21.60;63.20;;;;;;5016110;28;19920;-82
2022/09/13 04:40:55;;;;;;;;;;;21.50;63.20;;;;;;5032877;28;20269;-84
2022/09/13 04:43:22;;;;;;;;;;;21.50;63.20;;;;;;5033391;28;19920;-85
2022/09/13 04:45:47;;;;;;;;;;;21.50;63.20;;;;;;5016334;28;19904;-84
2022/09/13 04:48:14;;;;;;;;;;;21.50;63.20;;;;;;5032710;28;19913;-84
2022/09/13 04:50:40;;;;;;;;;;;21.50;63.20;;;;;;5033926;28;20010;-84
2022/09/13 04:53:05;;;;;;;;;;;21.50;63.30;;;;;;5032805;28;20381;-83
2022/09/13 04:55:31;;;;;;;;;;;21.50;63.20;;;;;;5016362;28;19912;-83
2022/09/13 04:57:57;;;;;;;;;;;21.50;63.20;;;;;;5049358;28;19920;-85
2022/09/13 05:00:24;;;;;;;;;;;21.50;63.30;;;;;;5032905;28;19909;-83
2022/09/13 05:02:54;;;;;;;;;;;21.50;63.30;;;;;;5034106;28;19936;-82
2022/09/13 05:05:19;;;;;;;;;;;21.50;63.90;;;;;;5016222;28;19905;-84
2022/09/13 05:07:48;;;;;;;;;;;21.50;63.30;;;;;;5049397;28;19921;-83
2022/09/13 05:10:14;;;;;;;;;;;21.50;63.30;;;;;;5036479;28;19909;-85
2022/09/13 05:12:40;;;;;;;;;;;21.50;63.30;;;;;;5020470;28;19913;-83
2022/09/13 05:15:06;;;;;;;;;;;21.50;63.30;;;;;;5020302;28;20206;-84
2022/09/13 05:17:31;;;;;;;;;;;21.50;63.30;;;;;;5037952;28;19948;-85
2022/09/13 05:19:57;;;;;;;;;;;21.40;63.20;;;;;;5053780;28;19909;-83
2022/09/13 05:22:23;;;;;;;;;;;21.50;63.30;;;;;;5036302;28;19967;-84
2022/09/13 05:24:48;;;;;;;;;;;21.40;63.30;;;;;;5019959;28;19999;-85
2022/09/13 05:27:14;;;;;;;;;;;21.50;63.30;;;;;;5036542;28;20251;-85
2022/09/13 05:29:39;;;;;;;;;;;21.40;63.30;;;;;;5020062;28;20254;-85
2022/09/13 05:32:05;;;;;;;;;;;21.50;63.40;;;;;;5036021;28;20362;-84
2022/09/13 05:34:31;;;;;;;;;;;21.40;63.30;;;;;;5019046;28;19917;-85
2022/09/13 05:36:56;;;;;;;;;;;21.40;63.30;;;;;;5036126;28;19948;-85
2022/09/13 05:39:22;;;;;;;;;;;21.40;63.30;;;;;;5036003;28;19920;-85
2022/09/13 05:41:48;;;;;;;;;;;21.40;63.30;;;;;;5036609;28;20357;-85
2022/09/13 05:44:13;;;;;;;;;;;21.40;63.30;;;;;;5019733;28;19905;-85
2022/09/13 05:46:40;;;;;;;;;;;21.40;63.30;;;;;;5019494;28;19941;-85
2022/09/13 05:49:06;;;;;;;;;;;21.40;63.30;;;;;;5019852;28;19947;-83
2022/09/13 05:51:32;;;;;;;;;;;21.40;63.30;;;;;;5019856;28;19917;-85
2022/09/13 05:53:58;;;;;;;;;;;21.40;63.30;;;;;;5019581;28;19917;-85
2022/09/13 05:56:25;;;;;;;;;;;21.40;63.30;;;;;;5052802;28;19913;-85
2022/09/13 05:58:51;;;;;;;;;;;21.40;63.30;;;;;;5037366;28;19913;-85
2022/09/13 06:01:18;;;;;;;;;;;21.40;63.30;;;;;;5052819;28;19916;-85
2022/09/13 06:03:48;;;;;;;;;;;21.40;63.30;;;;;;5020008;28;20012;-85
2022/09/13 06:06:14;;;;;;;;;;;21.40;63.30;;;;;;5036118;28;19905;-85
2022/09/13 06:08:40;;;;;;;;;;;21.40;63.30;;;;;;5019498;28;19944;-85
2022/09/13 06:11:07;;;;;;;;;;;21.40;63.30;;;;;;5037537;28;20007;-85
2022/09/13 06:13:33;;;;;;;;;;;21.40;63.40;;;;;;5019445;28;19909;-85
2022/09/13 06:15:59;;;;;;;;;;;21.40;63.30;;;;;;5019366;28;19917;-85
2022/09/13 06:18:25;;;;;;;;;;;21.40;63.40;;;;;;5019321;28;19909;-85
2022/09/13 06:20:58;;;;;;;;;;;21.40;63.30;;;;;;5052363;28;19913;-86
2022/09/13 06:23:23;;;;;;;;;;;21.40;63.40;;;;;;5015902;28;19910;-84
2022/09/13 06:25:49;;;;;;;;;;;21.40;63.30;;;;;;5032347;28;19915;-84
2022/09/13 06:28:14;;;;;;;;;;;21.40;63.40;;;;;;5052855;28;20004;-84
2022/09/13 06:30:40;;;;;;;;;;;21.40;63.40;;;;;;5019707;28;20004;-85
2022/09/13 06:33:06;;;;;;;;;;;21.40;63.40;;;;;;5035951;28;20249;-85
2022/09/13 06:35:31;;;;;;;;;;;21.40;63.40;;;;;;5052482;28;19924;-85
2022/09/13 06:37:57;;;;;;;;;;;21.40;63.30;;;;;;5035905;28;20373;-85
2022/09/13 06:40:23;;;;;;;;;;;21.40;63.40;;;;;;5015966;28;19910;-85
2022/09/13 06:42:49;;;;;;;;;;;21.40;63.40;;;;;;5032177;28;20403;-86
2022/09/13 06:45:15;;;;;;;;;;;21.40;63.40;;;;;;5002351;28;19912;-85
2022/09/13 06:47:40;;;;;;;;;;;21.40;63.40;;;;;;5018889;28;19913;-84
2022/09/13 06:50:06;;;;;;;;;;;21.40;63.40;;;;;;5035033;28;19909;-85
2022/09/13 06:52:32;;;;;;;;;;;21.40;63.40;;;;;;5036315;28;19913;-84
2022/09/13 06:54:57;;;;;;;;;;;21.40;63.40;;;;;;5018910;28;19905;-85
2022/09/13 06:57:23;;;;;;;;;;;21.40;63.40;;;;;;5018548;28;20360;-85
2022/09/13 06:59:49;;;;;;;;;;;21.40;63.40;;;;;;5036041;28;19909;-85
2022/09/13 07:02:15;;;;;;;;;;;21.40;63.40;;;;;;5018885;28;19959;-85
2022/09/13 07:04:40;;;;;;;;;;;21.40;63.40;;;;;;5035251;28;20030;-85
2022/09/13 07:07:06;;;;;;;;;;;21.50;63.50;;;;;;5034961;28;19943;-85
2022/09/13 07:09:33;;;;;;;;;;;21.50;63.50;;;;;;5050957;28;20012;-85
2022/09/13 07:11:59;;;;;;;;;;;21.50;63.50;;;;;;5035132;28;19913;-84
2022/09/13 07:14:26;;;;;;;;;;;21.50;63.50;;;;;;5018271;28;19916;-84
2022/09/13 07:16:52;;;;;;;;;;;21.50;63.50;;;;;;5018421;28;19913;-86
2022/09/13 07:19:21;;;;;;;;;;;21.50;63.50;;;;;;5051271;28;19913;-86
2022/09/13 07:21:48;;;;;;;;;;;21.50;63.60;;;;;;5018134;28;19909;-85
2022/09/13 07:24:14;;;;;;;;;;;21.50;63.50;;;;;;5018746;28;19916;-85
2022/09/13 07:26:40;;;;;;;;;;;21.50;63.50;;;;;;5018048;28;19913;-85
2022/09/13 07:29:07;;;;;;;;;;;21.50;63.50;;;;;;5051028;28;20285;-85
2022/09/13 07:31:39;;;;;;;;;;;21.60;63.60;;;;;;5034912;28;20385;-85
2022/09/13 07:34:06;;;;;;;;;;;21.60;63.60;;;;;;5017199;28;19913;-85
2022/09/13 07:36:34;;;;;;;;;;;21.60;63.60;;;;;;5035321;28;19932;-85
2022/09/13 07:39:00;;;;;;;;;;;21.60;63.60;;;;;;5017812;28;19909;-85
2022/09/13 07:41:27;;;;;;;;;;;21.70;63.60;;;;;;5017774;28;19916;-84
2022/09/13 07:43:52;;;;;;;;;;;21.70;63.60;;;;;;5017626;28;19949;-86
2022/09/13 07:46:21;;;;;;;;;;;21.70;63.60;;;;;;5017611;28;19920;-87
2022/09/13 07:48:46;;;;;;;;;;;21.70;63.60;;;;;;5017740;28;19992;-85
2022/09/13 07:51:14;;;;;;;;;;;21.70;63.60;;;;;;5034044;28;19951;-85
2022/09/13 07:53:40;;;;;;;;;;;21.80;63.60;;;;;;5034071;28;20277;-85
2022/09/13 07:56:10;;;;;;;;;;;21.80;63.60;;;;;;5001523;28;19913;-85
2022/09/13 07:58:37;;;;;;;;;;;21.80;63.60;;;;;;5016849;28;19909;-85
2022/09/13 08:01:07;;;;;;;;;;;21.80;63.60;;;;;;5016908;28;20342;-85
2022/09/13 08:03:33;;;;;;;;;;;21.80;63.60;;;;;;5017201;28;20365;-85
2022/09/13 08:05:59;;;;;;;;;;;21.80;63.60;;;;;;5034617;28;20016;-85
2022/09/13 08:08:24;;;;;;;;;;;21.90;63.60;;;;;;5034984;28;19956;-85
2022/09/13 08:10:50;;;;;;;;;;;21.90;63.60;;;;;;5033386;28;19923;-85
2022/09/13 08:13:16;;;;;;;;;;;21.90;63.60;;;;;;5035120;28;20016;-85
2022/09/13 08:15:41;;;;;;;;;;;21.90;63.60;;;;;;5033719;28;19947;-85
2022/09/13 08:18:07;;;;;;;;;;;22.00;63.70;;;;;;5049997;28;19913;-85
2022/09/13 08:20:37;;;;;;;;;;;22.00;63.70;;;;;;5033959;28;19909;-85
2022/09/13 08:23:03;;;;;;;;;;;22.00;63.70;;;;;;5049957;28;19920;-84
2022/09/13 08:25:30;;;;;;;;;;;22.00;64.00;;;;;;5017333;28;19955;-85
2022/09/13 08:27:56;;;;;;;;;;;22.00;63.70;;;;;;5017194;28;19905;-85
2022/09/13 08:30:22;;;;;;;;;;;22.10;63.80;;;;;;5034379;28;20020;-86
2022/09/13 08:32:49;;;;;;;;;;;22.10;63.90;;;;;;5017011;28;19905;-86
2022/09/13 08:35:15;;;;;;;;;;;22.10;63.90;;;;;;5016605;28;20003;-85
2022/09/13 08:37:40;;;;;;;;;;;22.10;64.00;;;;;;5049857;28;19948;-86
2022/09/13 08:40:06;;;;;;;;;;;22.20;64.00;;;;;;5033339;28;19913;-88
2022/09/13 08:42:45;;;;;;;;;;;22.20;64.10;;;;;;5032854;28;19909;-87
2022/09/13 08:45:10;;;;;;;;;;;22.30;64.20;;;;;;5016874;28;20451;-86
2022/09/13 08:47:41;;;;;;;;;;;22.30;64.20;;;;;;5034369;28;19916;-86
2022/09/13 08:50:10;;;;;;;;;;;22.40;64.20;;;;;;5016879;28;20431;-86
2022/09/13 08:52:59;;;;;;;;;;;22.40;64.20;;;;;;5033238;28;19972;-86
2022/09/13 08:55:34;;;;;;;;;;;22.40;64.20;;;;;;5028277;28;19924;-86
2022/09/13 08:58:12;;;;;;;;;;;22.50;64.20;;;;;;5016678;28;19912;-85
2022/09/13 09:00:39;;;;;;;;;;;22.50;64.20;;;;;;5033620;28;19913;-85
2022/09/13 09:03:18;;;;;;;;;;;22.60;64.20;;;;;;5016982;28;19905;-85
2022/09/13 09:05:46;;;;;;;;;;;22.60;64.20;;;;;;5016553;28;19982;-87
2022/09/13 09:08:35;;;;;;;;;;;22.70;64.30;;;;;;5033880;28;19924;-87
2022/09/13 09:11:04;;;;;;;;;;;22.70;64.20;;;;;;5000250;28;20273;-86
2022/09/13 09:13:49;;;;;;;;;;;22.80;64.20;;;;;;5016197;28;19909;-85
2022/09/13 09:16:24;;;;;;;;;;;22.80;64.30;;;;;;5049501;28;19920;-86
2022/09/13 09:18:50;;;;;;;;;;;22.90;64.30;;;;;;5032965;28;19909;-87
2022/09/13 09:21:17;;;;;;;;;;;22.90;64.30;;;;;;5016408;28;19959;-86
2022/09/13 09:23:53;;;;;;;;;;;23.00;64.30;;;;;;5016506;28;19917;-86
2022/09/13 09:26:20;;;;;;;;;;;23.00;64.30;;;;;;5015971;28;20027;-86
2022/09/13 09:28:57;;;;;;;;;;;23.00;64.20;;;;;;5016408;28;19912;-85
2022/09/13 09:31:44;;;;;;;;;;;23.10;64.30;;;;;;5033442;28;19916;-87
2022/09/13 09:34:13;;;;;;;;;;;23.20;64.30;;;;;;5016389;28;19962;-88
2022/09/13 09:37:15;;;;;;;;;;;23.20;64.30;;;;;;5034015;28;19963;-85
2022/09/13 09:39:41;;;;;;;;;;;23.20;64.20;;;;;;4992670;28;20161;-86
2022/09/13 09:42:12;;;;;;;;;;;23.30;64.30;;;;;;4990365;28;19913;-85
2022/09/13 09:44:38;;;;;;;;;;;23.30;64.30;;;;;;5016695;28;19916;-86
2022/09/13 09:47:16;;;;;;;;;;;23.30;64.30;;;;;;5016404;28;19905;-86
2022/09/13 09:52:42;;;;;;;;;;;23.50;64.30;;;;;;5013262;28;19913;-85
2022/09/13 09:55:19;;;;;;;;;;;23.50;64.20;;;;;;5014645;28;19914;-85
2022/09/13 09:57:49;;;;;;;;;;;23.50;64.20;;;;;;5036301;28;19944;-85
2022/09/13 10:00:15;;;;;;;;;;;23.50;64.20;;;;;;5037871;28;20391;-86
2022/09/13 10:02:45;;;;;;;;;;;23.60;64.30;;;;;;5036721;28;19923;-86
2022/09/13 10:05:13;;;;;;;;;;;23.60;64.30;;;;;;5035979;28;19911;-85
2022/09/13 10:07:39;;;;;;;;;;;23.60;64.30;;;;;;5051622;28;20427;-85
2022/09/13 10:10:07;;;;;;;;;;;23.70;64.30;;;;;;5053204;28;19919;-86
2022/09/13 10:12:35;;;;;;;;;;;23.70;64.30;;;;;;5019388;28;19940;-86
2022/09/13 10:15:19;;;;;;;;;;;23.70;64.30;;;;;;5019338;28;20348;-85
2022/09/13 10:18:24;;;;;;;;;;;23.70;64.20;;;;;;5019306;28;19928;-86
2022/09/13 10:21:01;;;;;;;;;;;23.80;64.30;;;;;;4982062;28;20003;-85
2022/09/13 10:23:27;;;;;;;;;;;23.80;64.30;;;;;;4998289;28;19909;-85
2022/09/13 10:26:02;;;;;;;;;;;23.90;64.30;;;;;;5009695;28;19912;-85
2022/09/13 10:28:29;;;;;;;;;;;23.90;64.40;;;;;;5035453;28;19909;-84
2022/09/13 10:31:01;;;;;;;;;;;24.00;64.30;;;;;;5018724;28;19912;-86
2022/09/13 10:33:35;;;;;;;;;;;24.00;64.30;;;;;;5036199;28;19920;-86
2022/09/13 10:36:06;;;;;;;;;;;24.00;64.30;;;;;;5035809;28;19913;-86
2022/09/13 10:38:34;;;;;;;;;;;24.00;64.30;;;;;;5018914;28;19909;-83
2022/09/13 10:41:02;;;;;;;;;;;24.10;64.30;;;;;;5018403;28;19905;-86
2022/09/13 10:43:28;;;;;;;;;;;24.20;64.30;;;;;;5018733;28;19917;-86
2022/09/13 10:45:55;;;;;;;;;;;24.20;64.30;;;;;;5051548;28;19909;-87
2022/09/13 10:48:21;;;;;;;;;;;24.20;64.20;;;;;;5018779;28;20003;-85
2022/09/13 10:51:06;;;;;;;;;;;24.30;64.20;;;;;;5051715;28;19991;-86
2022/09/13 10:53:33;;;;;;;;;;;24.30;64.20;;;;;;5018490;28;20266;-85
2022/09/13 10:56:01;;;;;;;;;;;24.30;64.20;;;;;;5018365;28;19909;-85
2022/09/13 10:58:27;;;;;;;;;;;24.40;64.20;;;;;;5018589;28;19909;-86
2022/09/13 11:01:11;;;;;;;;;;;24.40;64.20;;;;;;5034930;28;20386;-86
2022/09/13 11:03:46;;;;;;;;;;;24.50;64.30;;;;;;5018419;28;19909;-85
2022/09/13 11:06:20;;;;;;;;;;;24.50;64.30;;;;;;5034621;28;19909;-85
2022/09/13 11:08:49;;;;;;;;;;;24.50;64.30;;;;;;5017921;28;19917;-87
2022/09/13 11:11:23;;;;;;;;;;;24.60;64.30;;;;;;5018249;28;19967;-86
2022/09/13 11:13:55;;;;;;;;;;;24.60;64.30;;;;;;5017863;28;19975;-85
2022/09/13 11:16:41;;;;;;;;;;;24.60;64.30;;;;;;5018210;28;19916;-84
2022/09/13 11:19:07;;;;;;;;;;;24.70;64.30;;;;;;5001215;28;19952;-86
2022/09/13 11:21:51;;;;;;;;;;;24.70;64.30;;;;;;5001456;28;19987;-85
2022/09/13 11:24:17;;;;;;;;;;;24.70;64.30;;;;;;5018064;28;19909;-85
2022/09/13 11:26:51;;;;;;;;;;;24.80;64.40;;;;;;5017938;28;19911;-85
2022/09/13 11:29:43;;;;;;;;;;;24.80;64.30;;;;;;5035164;28;20362;-84
2022/09/13 11:32:22;;;;;;;;;;;24.80;64.30;;;;;;5035949;28;19955;-85
2022/09/13 11:34:50;;;;;;;;;;;24.90;64.30;;;;;;5034498;28;19920;-84
2022/09/13 11:37:15;;;;;;;;;;;24.90;64.30;;;;;;5017900;28;19992;-85
2022/09/13 11:39:51;;;;;;;;;;;25.00;64.30;;;;;;5018384;28;20394;-84
2022/09/13 11:42:55;;;;;;;;;;;25.00;64.30;;;;;;5018064;28;19909;-86
2022/09/13 11:45:27;;;;;;;;;;;25.10;64.30;;;;;;4974272;28;19910;-85
2022/09/13 11:47:53;;;;;;;;;;;25.10;64.30;;;;;;4941962;28;19910;-84
2022/09/13 11:50:22;;;;;;;;;;;25.10;64.20;;;;;;4972485;28;19957;-84
2022/09/13 11:52:47;;;;;;;;;;;25.20;64.20;;;;;;5017501;28;19948;-85
2022/09/13 11:55:17;;;;;;;;;;;25.20;64.20;;;;;;5017349;28;19994;-85
2022/09/13 11:57:47;;;;;;;;;;;25.20;64.20;;;;;;5017461;28;19944;-85
2022/09/13 12:00:17;;;;;;;;;;;25.30;64.20;;;;;;5000997;28;19945;-86
2022/09/13 12:02:43;;;;;;;;;;;25.40;64.20;;;;;;5034206;28;19909;-85
2022/09/13 12:05:29;;;;;;;;;;;25.40;64.20;;;;;;5000728;28;19905;-85
2022/09/13 12:08:01;;;;;;;;;;;25.40;64.10;;;;;;5016074;28;19917;-86
2022/09/13 12:10:49;;;;;;;;;;;25.40;64.10;;;;;;5034762;28;19909;-86
2022/09/13 12:13:33;;;;;;;;;;;25.40;64.00;;;;;;5000233;28;19913;-85
2022/09/13 12:16:01;;;;;;;;;;;25.50;64.00;;;;;;5016573;28;19920;-84
2022/09/13 12:18:28;;;;;;;;;;;25.50;64.00;;;;;;4999492;28;20373;-84
2022/09/13 12:20:59;;;;;;;;;;;25.50;63.90;;;;;;5000218;28;20014;-83
2022/09/13 12:23:25;;;;;;;;;;;25.60;64.00;;;;;;5016180;28;19909;-84
2022/09/13 12:25:56;;;;;;;;;;;25.60;64.00;;;;;;5000593;28;20330;-83
2022/09/13 12:28:26;;;;;;;;;;;25.60;64.00;;;;;;5016478;28;19916;-83
2022/09/13 12:30:56;;;;;;;;;;;25.70;64.10;;;;;;5016166;28;19916;-83
2022/09/13 12:33:22;;;;;;;;;;;25.70;64.00;;;;;;5016303;28;19935;-83
2022/09/13 12:35:58;;;;;;;;;;;25.70;63.90;;;;;;4999723;28;19913;-83
2022/09/13 12:38:54;;;;;;;;;;;25.70;63.90;;;;;;5033446;28;19939;-84
2022/09/13 12:41:26;;;;;;;;;;;25.70;63.90;;;;;;5034551;28;19909;-82
2022/09/13 12:43:59;;;;;;;;;;;25.80;63.80;;;;;;4999784;28;20353;-83
2022/09/13 12:46:44;;;;;;;;;;;25.80;63.80;;;;;;5016857;28;19909;-84
2022/09/13 12:49:22;;;;;;;;;;;25.80;63.70;;;;;;5016942;28;20248;-83
2022/09/13 12:51:48;;;;;;;;;;;25.90;63.70;;;;;;5015887;28;20357;-83
2022/09/13 12:54:17;;;;;;;;;;;25.80;63.60;;;;;;5015932;28;19916;-82
2022/09/13 12:56:45;;;;;;;;;;;25.90;63.60;;;;;;4999483;28;19933;-84
2022/09/13 12:59:17;;;;;;;;;;;25.90;63.60;;;;;;5016656;28;19909;-83
2022/09/13 13:01:47;;;;;;;;;;;25.90;63.60;;;;;;4999623;28;19956;-83
2022/09/13 13:04:16;;;;;;;;;;;26.00;63.60;;;;;;5016162;28;20361;-84
2022/09/13 13:07:01;;;;;;;;;;;26.00;63.60;;;;;;5016543;28;19916;-84
2022/09/13 13:09:33;;;;;;;;;;;26.00;63.50;;;;;;4999695;28;19917;-84
2022/09/13 13:11:59;;;;;;;;;;;26.00;63.40;;;;;;4999486;28;20352;-83
2022/09/13 13:14:37;;;;;;;;;;;26.10;63.50;;;;;;5033885;28;19909;-85
2022/09/13 13:17:21;;;;;;;;;;;26.10;63.40;;;;;;5015830;28;19913;-83
2022/09/13 13:19:47;;;;;;;;;;;26.10;63.40;;;;;;5015809;28;20250;-83
2022/09/13 13:22:31;;;;;;;;;;;26.10;63.30;;;;;;5033698;28;19955;-82
2022/09/13 13:24:57;;;;;;;;;;;26.10;63.30;;;;;;5033216;28;19913;-82
2022/09/13 13:27:34;;;;;;;;;;;26.10;63.20;;;;;;4999253;28;19931;-83
2022/09/13 13:30:19;;;;;;;;;;;26.10;63.20;;;;;;5017684;28;19904;-82
2022/09/13 13:33:03;;;;;;;;;;;26.20;63.20;;;;;;5036964;28;20289;-84
2022/09/13 13:35:31;;;;;;;;;;;26.20;63.10;;;;;;5036921;28;19924;-83
2022/09/13 13:38:13;;;;;;;;;;;26.20;63.10;;;;;;5019113;28;19912;-83
2022/09/13 13:40:39;;;;;;;;;;;26.20;63.70;;;;;;5019815;28;20265;-83
2022/09/13 13:43:23;;;;;;;;;;;26.30;63.10;;;;;;5002730;28;20019;-83
2022/09/13 13:45:57;;;;;;;;;;;26.20;63.00;;;;;;5036750;28;19912;-83
2022/09/13 13:48:37;;;;;;;;;;;26.30;63.00;;;;;;5019184;28;20364;-83
2022/09/13 13:51:14;;;;;;;;;;;26.30;63.00;;;;;;5037904;28;20422;-83
2022/09/13 13:53:44;;;;;;;;;;;26.40;63.00;;;;;;5018803;28;19913;-85
2022/09/13 13:56:16;;;;;;;;;;;26.30;62.90;;;;;;5003096;28;19920;-83
2022/09/13 13:58:42;;;;;;;;;;;26.40;62.90;;;;;;5019293;28;20341;-83
2022/09/13 14:01:13;;;;;;;;;;;26.40;62.90;;;;;;5037258;28;19911;-83
2022/09/13 14:04:05;;;;;;;;;;;26.40;62.80;;;;;;5019277;28;19908;-83
2022/09/13 14:06:44;;;;;;;;;;;26.40;62.80;;;;;;4994839;28;19959;-82
2022/09/13 14:09:27;;;;;;;;;;;26.50;62.80;;;;;;5002612;28;19924;-83
2022/09/13 14:11:52;;;;;;;;;;;26.50;62.80;;;;;;5018606;28;19936;-83
2022/09/13 14:14:22;;;;;;;;;;;26.50;62.80;;;;;;5019498;28;19913;-82
2022/09/13 14:16:48;;;;;;;;;;;26.50;62.70;;;;;;5018584;28;20039;-83
2022/09/13 14:19:13;;;;;;;;;;;26.50;62.70;;;;;;5002281;28;19921;-83
2022/09/13 14:21:39;;;;;;;;;;;26.50;62.60;;;;;;5002952;28;19905;-83
2022/09/13 14:24:23;;;;;;;;;;;26.50;62.60;;;;;;5036722;28;20330;-83
2022/09/13 14:26:53;;;;;;;;;;;26.50;62.60;;;;;;5037066;28;19909;-82
2022/09/13 14:29:20;;;;;;;;;;;26.50;62.60;;;;;;5018333;28;19959;-82
2022/09/13 14:31:47;;;;;;;;;;;26.50;62.60;;;;;;5018644;28;19908;-83
2022/09/13 14:34:23;;;;;;;;;;;26.50;62.50;;;;;;5002030;28;20256;-82
2022/09/13 14:36:56;;;;;;;;;;;26.50;62.50;;;;;;5018163;28;19913;-83